Time;durP1;ratioP1;P1;durP2;ratioP2;P2;SDS_P1;SDS_P2;PMS_P1;PMS_P2;Temp;Humidity;BMP_temperature;BMP_pressure;BME280_temperature;BME280_humidity;BME280_pressure;Samples;Min_cycle;Max_cycle;Signal;HPM_P1;HPM_P2
2023/02/11 00:00:48;;;;;;;8.87;6.40;;;;;;;;;;5112292;28;20199;-82
2023/02/11 00:03:15;;;;;;;10.97;6.33;;;;;;;;;;5112568;28;20445;-82
2023/02/11 00:05:42;;;;;;;8.33;4.97;;;;;;;;;;5111995;28;20496;-83
2023/02/11 00:08:08;;;;;;;7.20;5.20;;;;;;;;;;5112145;28;20449;-82
2023/02/11 00:10:36;;;;;;;8.03;4.50;;;;;;;;;;5111374;28;20200;-82
2023/02/11 00:13:04;;;;;;;4.97;3.73;;;;;;;;;;5112047;28;21050;-83
2023/02/11 00:15:31;;;;;;;6.00;4.33;;;;;;;;;;5098900;28;20445;-83
2023/02/11 00:17:58;;;;;;;7.00;4.23;;;;;;;;;;5112302;28;20454;-82
2023/02/11 00:20:25;;;;;;;6.80;4.40;;;;;;;;;;5112256;28;20211;-82
2023/02/11 00:22:51;;;;;;;8.17;4.60;;;;;;;;;;5101420;28;20192;-82
2023/02/11 00:25:18;;;;;;;5.47;4.90;;;;;;;;;;5091645;28;20706;-82
2023/02/11 00:27:45;;;;;;;5.87;4.53;;;;;;;;;;5103183;28;20199;-82
2023/02/11 00:30:13;;;;;;;11.27;6.27;;;;;;;;;;5111518;28;20453;-82
2023/02/11 00:32:41;;;;;;;10.20;7.27;;;;;;;;;;5111393;28;20212;-82
2023/02/11 00:35:08;;;;;;;35.40;17.37;;;;;;;;;;5112198;28;20889;-82
2023/02/11 00:37:35;;;;;;;35.97;20.40;;;;;;;;;;5112114;28;20452;-83
2023/02/11 00:40:02;;;;;;;41.30;20.30;;;;;;;;;;5105989;28;20207;-83
2023/02/11 00:42:29;;;;;;;33.93;17.27;;;;;;;;;;5104250;28;20452;-82
2023/02/11 00:44:56;;;;;;;39.03;17.00;;;;;;;;;;5098171;28;20299;-83
2023/02/11 00:47:24;;;;;;;56.30;26.63;;;;;;;;;;5112093;28;20453;-83
2023/02/11 00:49:51;;;;;;;20.50;11.30;;;;;;;;;;5112154;28;20207;-82
2023/02/11 00:52:18;;;;;;;13.00;6.73;;;;;;;;;;5111715;28;20445;-83
2023/02/11 00:54:44;;;;;;;9.53;5.60;;;;;;;;;;5097782;28;20967;-84
2023/02/11 00:57:11;;;;;;;10.33;6.17;;;;;;;;;;5111491;28;20452;-83
2023/02/11 00:59:39;;;;;;;9.00;4.93;;;;;;;;;;5111745;28;20207;-83
2023/02/11 01:02:05;;;;;;;7.97;5.50;;;;;;;;;;5111790;28;20211;-83
2023/02/11 01:04:33;;;;;;;8.10;6.17;;;;;;;;;;5098578;28;20471;-83
2023/02/11 01:07:00;;;;;;;8.23;5.80;;;;;;;;;;5111611;28;20231;-83
2023/02/11 01:09:27;;;;;;;7.37;5.73;;;;;;;;;;5103976;28;20460;-83
2023/02/11 01:11:54;;;;;;;7.33;5.70;;;;;;;;;;5091296;28;20964;-83
2023/02/11 01:14:21;;;;;;;8.00;6.10;;;;;;;;;;5111191;28;20437;-83
2023/02/11 01:16:48;;;;;;;10.17;5.77;;;;;;;;;;5097286;28;20457;-83
2023/02/11 01:19:14;;;;;;;11.10;6.07;;;;;;;;;;5098651;28;20211;-82
2023/02/11 01:21:43;;;;;;;9.60;4.53;;;;;;;;;;5111298;28;20457;-83
2023/02/11 01:24:09;;;;;;;8.33;5.97;;;;;;;;;;5111300;28;20952;-83
2023/02/11 01:26:36;;;;;;;7.17;5.93;;;;;;;;;;5097980;28;20232;-82
2023/02/11 01:29:03;;;;;;;10.40;7.30;;;;;;;;;;5111289;28;20207;-83
2023/02/11 01:31:31;;;;;;;10.40;7.67;;;;;;;;;;5111342;28;20211;-82
2023/02/11 01:33:58;;;;;;;9.20;6.50;;;;;;;;;;5102666;28;20446;-83
2023/02/11 01:36:24;;;;;;;10.53;6.40;;;;;;;;;;5091380;28;20462;-83
2023/02/11 01:38:53;;;;;;;11.07;6.60;;;;;;;;;;5091025;28;20196;-82
2023/02/11 01:41:19;;;;;;;9.53;7.53;;;;;;;;;;5104664;28;20522;-83
2023/02/11 01:43:49;;;;;;;10.33;7.17;;;;;;;;;;5101187;28;20449;-82
2023/02/11 01:46:34;;;;;;;14.03;6.93;;;;;;;;;;5112191;28;20481;-83
2023/02/11 01:49:04;;;;;;;9.73;6.70;;;;;;;;;;5103500;28;20873;-82
2023/02/11 01:51:34;;;;;;;7.93;6.30;;;;;;;;;;5114445;28;20453;-82
2023/02/11 01:59:36;;;;;;;14.83;9.60;;;;;;;;;;5108977;28;20980;-84
2023/02/11 02:02:08;;;;;;;14.60;8.90;;;;;;;;;;5094712;28;20457;-83
2023/02/11 02:04:39;;;;;;;9.73;7.57;;;;;;;;;;5102011;28;20452;-83
2023/02/11 02:07:09;;;;;;;14.17;7.77;;;;;;;;;;5114342;28;20920;-83
2023/02/11 02:09:41;;;;;;;10.20;6.43;;;;;;;;;;5115038;28;20506;-83
2023/02/11 02:12:08;;;;;;;11.80;7.57;;;;;;;;;;5114092;28;20445;-82
2023/02/11 02:14:38;;;;;;;27.03;17.23;;;;;;;;;;5105702;28;20476;-83
2023/02/11 02:17:05;;;;;;;22.73;13.87;;;;;;;;;;5110823;28;21477;-83
2023/02/11 02:19:57;;;;;;;10.30;6.87;;;;;;;;;;5114839;28;20456;-85
2023/02/11 02:23:05;;;;;;;9.17;6.70;;;;;;;;;;5114512;28;20522;-82
2023/02/11 02:25:48;;;;;;;8.07;5.47;;;;;;;;;;5074621;28;20533;-83
2023/02/11 02:28:37;;;;;;;8.37;5.27;;;;;;;;;;5114025;28;20449;-83
2023/02/11 02:31:20;;;;;;;7.33;5.23;;;;;;;;;;5102967;28;20882;-88
2023/02/11 02:33:53;;;;;;;8.93;4.80;;;;;;;;;;5114344;28;20457;-83
2023/02/11 02:36:22;;;;;;;7.60;4.90;;;;;;;;;;5113563;28;20870;-83
2023/02/11 02:38:53;;;;;;;7.93;5.00;;;;;;;;;;5105721;28;20594;-83
2023/02/11 02:41:22;;;;;;;9.83;5.57;;;;;;;;;;5107616;28;20453;-83
2023/02/11 02:43:50;;;;;;;11.50;5.70;;;;;;;;;;5102923;28;20460;-83
2023/02/11 02:46:19;;;;;;;14.27;6.03;;;;;;;;;;5110449;28;20884;-83
2023/02/11 02:48:48;;;;;;;8.50;5.60;;;;;;;;;;5104086;28;20457;-82
2023/02/11 02:51:44;;;;;;;10.87;5.43;;;;;;;;;;5099779;28;20445;-83
2023/02/11 02:54:38;;;;;;;9.20;5.90;;;;;;;;;;5113137;28;20971;-82
2023/02/11 02:57:14;;;;;;;9.57;5.40;;;;;;;;;;5113573;28;20453;-88
2023/02/11 02:59:49;;;;;;;10.00;5.23;;;;;;;;;;5093630;28;20450;-82
2023/02/11 03:02:22;;;;;;;7.07;4.57;;;;;;;;;;5108207;28;20460;-82
2023/02/11 03:04:52;;;;;;;9.47;5.80;;;;;;;;;;5104624;28;20446;-83
2023/02/11 03:07:27;;;;;;;6.73;4.93;;;;;;;;;;5095981;28;20932;-82
2023/02/11 03:09:57;;;;;;;10.43;6.83;;;;;;;;;;5102937;28;20450;-83
2023/02/11 03:12:25;;;;;;;11.20;8.87;;;;;;;;;;5106854;28;20508;-82
2023/02/11 03:14:52;;;;;;;8.50;6.50;;;;;;;;;;5104841;28;20453;-83
2023/02/11 03:17:19;;;;;;;11.77;7.13;;;;;;;;;;5108276;28;20985;-84
2023/02/11 03:19:46;;;;;;;7.80;7.00;;;;;;;;;;5104842;28;20460;-83
2023/02/11 03:22:18;;;;;;;11.67;7.23;;;;;;;;;;5107952;28;20450;-83
2023/02/11 03:24:46;;;;;;;10.67;6.80;;;;;;;;;;5092684;28;20515;-83
2023/02/11 03:27:18;;;;;;;11.23;6.70;;;;;;;;;;5106369;28;20482;-83
2023/02/11 03:29:50;;;;;;;9.27;5.97;;;;;;;;;;5106898;28;20453;-83
2023/02/11 03:32:21;;;;;;;8.77;4.93;;;;;;;;;;5113214;28;20449;-82
2023/02/11 03:34:52;;;;;;;5.33;4.83;;;;;;;;;;5111524;28;20453;-83
2023/02/11 03:37:21;;;;;;;5.77;4.83;;;;;;;;;;5102043;28;20453;-83
2023/02/11 03:39:52;;;;;;;7.13;4.57;;;;;;;;;;5113031;28;20477;-82
2023/02/11 03:42:20;;;;;;;9.33;4.43;;;;;;;;;;5112800;28;20445;-83
2023/02/11 03:44:50;;;;;;;5.43;4.17;;;;;;;;;;5112728;28;20480;-83
2023/02/11 03:47:20;;;;;;;5.23;4.47;;;;;;;;;;5112362;28;20496;-83
2023/02/11 03:49:50;;;;;;;7.03;4.83;;;;;;;;;;5112609;28;20510;-83
2023/02/11 03:52:18;;;;;;;7.77;4.87;;;;;;;;;;5099688;28;20450;-83
2023/02/11 03:54:46;;;;;;;8.13;5.60;;;;;;;;;;5112257;28;20486;-83
2023/02/11 03:57:14;;;;;;;6.17;4.30;;;;;;;;;;5099515;28;20507;-82
2023/02/11 03:59:51;;;;;;;6.60;4.47;;;;;;;;;;5105862;28;20450;-82
2023/02/11 04:02:18;;;;;;;6.60;4.83;;;;;;;;;;5107760;28;20453;-83
2023/02/11 04:04:45;;;;;;;6.73;5.43;;;;;;;;;;5094991;28;20445;-82
2023/02/11 04:07:12;;;;;;;7.87;4.67;;;;;;;;;;5111506;28;20499;-82
2023/02/11 04:09:39;;;;;;;7.23;4.70;;;;;;;;;;5112632;28;20449;-83
2023/02/11 04:12:07;;;;;;;7.87;4.50;;;;;;;;;;5112438;28;20453;-83
2023/02/11 04:14:35;;;;;;;6.23;4.53;;;;;;;;;;5112725;28;20526;-82
2023/02/11 04:17:02;;;;;;;8.70;6.03;;;;;;;;;;5098556;28;20495;-83
2023/02/11 04:19:29;;;;;;;5.03;3.83;;;;;;;;;;5112309;28;20449;-82
2023/02/11 04:21:55;;;;;;;6.90;4.57;;;;;;;;;;5098530;28;20531;-82
2023/02/11 04:24:24;;;;;;;19.30;9.47;;;;;;;;;;5102978;28;20484;-85
2023/02/11 04:26:51;;;;;;;175.90;69.27;;;;;;;;;;5109132;28;20515;-82
2023/02/11 04:29:18;;;;;;;78.80;42.10;;;;;;;;;;5112518;28;20437;-83
2023/02/11 04:31:46;;;;;;;36.93;20.97;;;;;;;;;;5111006;28;20971;-83
2023/02/11 04:34:13;;;;;;;18.70;12.27;;;;;;;;;;5111955;28;21047;-83
2023/02/11 04:36:41;;;;;;;13.93;9.93;;;;;;;;;;5112197;28;20801;-83
2023/02/11 04:39:07;;;;;;;19.20;12.23;;;;;;;;;;5112169;28;20460;-82
2023/02/11 04:41:34;;;;;;;36.73;24.90;;;;;;;;;;5111620;28;20441;-82
2023/02/11 04:44:01;;;;;;;29.27;16.30;;;;;;;;;;5111925;28;20530;-82
2023/02/11 04:46:28;;;;;;;85.27;53.80;;;;;;;;;;5111863;28;20504;-82
2023/02/11 04:48:56;;;;;;;55.97;41.20;;;;;;;;;;5112009;28;20456;-83
2023/02/11 04:51:23;;;;;;;62.03;34.40;;;;;;;;;;5098765;28;20449;-83
2023/02/11 04:53:50;;;;;;;28.87;18.27;;;;;;;;;;5112340;28;20445;-82
2023/02/11 04:56:17;;;;;;;29.33;18.90;;;;;;;;;;5097868;28;20449;-86
2023/02/11 04:58:43;;;;;;;65.20;34.80;;;;;;;;;;5111773;28;20449;-82
2023/02/11 05:01:13;;;;;;;28.87;21.77;;;;;;;;;;5109855;28;20460;-83
2023/02/11 05:03:40;;;;;;;39.30;27.60;;;;;;;;;;5112184;28;20453;-86
2023/02/11 05:06:10;;;;;;;18.43;13.13;;;;;;;;;;5111781;28;20454;-83
2023/02/11 05:08:37;;;;;;;91.50;50.70;;;;;;;;;;5110568;28;20891;-83
2023/02/11 05:11:04;;;;;;;31.77;21.03;;;;;;;;;;5110649;28;20457;-82
2023/02/11 05:13:31;;;;;;;19.10;10.33;;;;;;;;;;5097679;28;20803;-83
2023/02/11 05:15:58;;;;;;;10.97;7.40;;;;;;;;;;5111311;28;20449;-83
2023/02/11 05:18:25;;;;;;;12.67;7.47;;;;;;;;;;5099667;28;20544;-84
2023/02/11 05:20:52;;;;;;;12.40;8.10;;;;;;;;;;5102218;28;20449;-85
2023/02/11 05:23:20;;;;;;;12.07;9.13;;;;;;;;;;5114614;28;20441;-84
2023/02/11 05:25:47;;;;;;;30.80;18.30;;;;;;;;;;5115750;28;20453;-84
2023/02/11 05:28:13;;;;;;;32.77;17.87;;;;;;;;;;5115172;28;20488;-84
2023/02/11 05:30:40;;;;;;;27.47;16.43;;;;;;;;;;5115504;28;20490;-84
2023/02/11 05:33:07;;;;;;;21.60;13.50;;;;;;;;;;5099059;28;20469;-85
2023/02/11 05:35:33;;;;;;;12.83;7.80;;;;;;;;;;5106572;28;20446;-85
2023/02/11 05:38:00;;;;;;;13.17;9.03;;;;;;;;;;5094875;28;20462;-84
2023/02/11 05:40:30;;;;;;;19.33;11.17;;;;;;;;;;5103590;28;20804;-84
2023/02/11 05:42:59;;;;;;;14.10;9.47;;;;;;;;;;5114882;28;20510;-85
2023/02/11 05:45:26;;;;;;;14.90;10.33;;;;;;;;;;5105101;28;20480;-85
2023/02/11 05:47:52;;;;;;;15.00;9.90;;;;;;;;;;5097378;28;20488;-85
2023/02/11 05:50:19;;;;;;;17.20;11.57;;;;;;;;;;5114682;28;20457;-84
2023/02/11 05:52:46;;;;;;;21.67;13.73;;;;;;;;;;5111210;28;20457;-85
2023/02/11 05:55:13;;;;;;;23.10;15.17;;;;;;;;;;5094936;28;20461;-85
2023/02/11 05:57:41;;;;;;;20.80;14.77;;;;;;;;;;5111970;28;20887;-84
2023/02/11 06:00:09;;;;;;;17.50;11.63;;;;;;;;;;5103636;28;20442;-84
2023/02/11 06:02:36;;;;;;;17.27;12.97;;;;;;;;;;5099382;28;20445;-84
2023/02/11 06:05:03;;;;;;;14.30;11.00;;;;;;;;;;5111636;28;21032;-85
2023/02/11 06:07:29;;;;;;;9.23;6.83;;;;;;;;;;5114366;28;20489;-84
2023/02/11 06:09:56;;;;;;;12.63;6.50;;;;;;;;;;5114514;28;20503;-83
2023/02/11 06:12:23;;;;;;;10.13;7.03;;;;;;;;;;5101312;28;20452;-84
2023/02/11 06:14:51;;;;;;;8.53;4.87;;;;;;;;;;5114306;28;20885;-84
2023/02/11 06:17:18;;;;;;;6.87;5.53;;;;;;;;;;5105400;28;20445;-82
2023/02/11 06:19:47;;;;;;;6.83;5.00;;;;;;;;;;5103298;28;21296;-82
2023/02/11 06:22:14;;;;;;;6.63;4.90;;;;;;;;;;5097032;28;21004;-83
2023/02/11 06:24:42;;;;;;;9.20;5.50;;;;;;;;;;5102945;28;20841;-83
2023/02/11 06:27:09;;;;;;;6.43;5.27;;;;;;;;;;5063186;28;20473;-83
2023/02/11 06:29:36;;;;;;;14.93;7.67;;;;;;;;;;5101928;28;20511;-81
2023/02/11 06:32:04;;;;;;;9.43;6.73;;;;;;;;;;5111370;28;20444;-80
2023/02/11 06:34:31;;;;;;;9.60;6.10;;;;;;;;;;5113468;28;20518;-82
2023/02/11 06:37:01;;;;;;;9.80;6.17;;;;;;;;;;5108517;28;20949;-81
2023/02/11 06:39:31;;;;;;;7.57;5.07;;;;;;;;;;5105542;28;20441;-79
2023/02/11 06:41:58;;;;;;;12.23;9.23;;;;;;;;;;5099391;28;20451;-77
2023/02/11 06:44:25;;;;;;;9.97;7.97;;;;;;;;;;5099654;28;20477;-77
2023/02/11 06:46:52;;;;;;;13.03;9.03;;;;;;;;;;5113114;28;20223;-79
2023/02/11 06:49:20;;;;;;;11.37;9.20;;;;;;;;;;5099708;28;20446;-79
2023/02/11 06:51:47;;;;;;;21.77;14.40;;;;;;;;;;5112907;28;20457;-79
2023/02/11 06:54:16;;;;;;;16.27;10.87;;;;;;;;;;5098497;28;20238;-81
2023/02/11 06:56:43;;;;;;;8.67;7.10;;;;;;;;;;5100992;28;20650;-84
2023/02/11 06:59:15;;;;;;;25.97;16.47;;;;;;;;;;5106614;28;20453;-86
2023/02/11 07:01:42;;;;;;;19.97;11.43;;;;;;;;;;5113917;28;20203;-81
2023/02/11 07:04:09;;;;;;;17.30;10.13;;;;;;;;;;5112621;28;20975;-82
2023/02/11 07:06:38;;;;;;;18.37;10.27;;;;;;;;;;5094986;28;20200;-83
2023/02/11 07:09:05;;;;;;;18.57;11.03;;;;;;;;;;5112697;28;20228;-82
2023/02/11 07:11:35;;;;;;;20.50;13.70;;;;;;;;;;5102115;28;20269;-84
2023/02/11 07:14:03;;;;;;;17.63;11.40;;;;;;;;;;5099599;28;20200;-83
2023/02/11 07:16:30;;;;;;;22.70;12.90;;;;;;;;;;5105570;28;20247;-85
2023/02/11 07:18:57;;;;;;;16.90;10.70;;;;;;;;;;5104886;28;20207;-85
2023/02/11 07:21:24;;;;;;;26.97;12.73;;;;;;;;;;5074835;28;20204;-84
2023/02/11 07:23:54;;;;;;;30.60;17.00;;;;;;;;;;5104871;28;20211;-83
2023/02/11 07:26:23;;;;;;;30.90;17.03;;;;;;;;;;5106033;28;20196;-84
2023/02/11 07:28:50;;;;;;;21.33;15.03;;;;;;;;;;5094015;28;20318;-82
2023/02/11 07:31:19;;;;;;;21.60;11.43;;;;;;;;;;5073390;28;20220;-82
2023/02/11 07:33:47;;;;;;;20.33;15.70;;;;;;;;;;5092117;28;20203;-81
2023/02/11 07:36:15;;;;;;;29.80;18.47;;;;;;;;;;5105193;28;20211;-81
2023/02/11 07:38:42;;;;;;;24.30;15.30;;;;;;;;;;5091756;28;20204;-80
2023/02/11 07:41:12;;;;;;;19.33;10.73;;;;;;;;;;5075217;28;20207;-78
2023/02/11 07:43:40;;;;;;;14.70;10.70;;;;;;;;;;5085506;28;20200;-79
2023/02/11 07:46:08;;;;;;;7.67;5.67;;;;;;;;;;5104801;28;20248;-79
2023/02/11 07:48:35;;;;;;;6.80;5.13;;;;;;;;;;5073535;28;20619;-79
2023/02/11 07:51:07;;;;;;;8.93;6.27;;;;;;;;;;5075854;28;20203;-81
2023/02/11 07:53:34;;;;;;;9.07;6.67;;;;;;;;;;5112013;28;20199;-78
2023/02/11 07:56:01;;;;;;;6.63;5.23;;;;;;;;;;5080033;28;20199;-77
2023/02/11 07:58:30;;;;;;;4.67;3.90;;;;;;;;;;5083079;28;20204;-78
2023/02/11 08:01:01;;;;;;;4.10;3.63;;;;;;;;;;5108907;28;20204;-76
2023/02/11 08:03:28;;;;;;;4.93;3.67;;;;;;;;;;5093325;28;20196;-78
2023/02/11 08:05:55;;;;;;;5.13;3.40;;;;;;;;;;5097704;28;20196;-78
2023/02/11 08:08:23;;;;;;;6.10;4.97;;;;;;;;;;5081493;28;20228;-77
2023/02/11 08:10:50;;;;;;;14.10;4.67;;;;;;;;;;5078230;28;20200;-78
2023/02/11 08:13:17;;;;;;;5.00;4.50;;;;;;;;;;5069562;28;20273;-78
2023/02/11 08:15:46;;;;;;;4.80;4.03;;;;;;;;;;5049859;28;20265;-82
2023/02/11 08:18:13;;;;;;;7.77;3.67;;;;;;;;;;5108857;28;20572;-82
2023/02/11 08:20:40;;;;;;;4.47;3.40;;;;;;;;;;5109774;28;20256;-81
2023/02/11 08:23:08;;;;;;;5.67;3.87;;;;;;;;;;5106240;28;20239;-81
2023/02/11 08:25:35;;;;;;;17.57;11.57;;;;;;;;;;5085606;28;20701;-81
2023/02/11 08:28:02;;;;;;;37.07;16.87;;;;;;;;;;5080061;28;20234;-81
2023/02/11 08:30:28;;;;;;;9.20;6.50;;;;;;;;;;5092583;28;20682;-80
2023/02/11 08:32:56;;;;;;;5.80;3.73;;;;;;;;;;5102936;28;20200;-83
2023/02/11 08:35:24;;;;;;;3.67;3.33;;;;;;;;;;5106618;28;20335;-81
2023/02/11 08:37:52;;;;;;;7.77;4.43;;;;;;;;;;5111773;28;20208;-81
2023/02/11 08:40:19;;;;;;;7.87;4.07;;;;;;;;;;5096703;28;20254;-81
2023/02/11 08:42:45;;;;;;;7.17;5.87;;;;;;;;;;5110598;28;20705;-81
2023/02/11 08:45:12;;;;;;;8.17;6.40;;;;;;;;;;5110362;28;20239;-81
2023/02/11 08:47:39;;;;;;;8.23;6.03;;;;;;;;;;5101008;28;20272;-81
2023/02/11 08:50:09;;;;;;;4.73;3.00;;;;;;;;;;5076165;28;20208;-81
2023/02/11 08:52:37;;;;;;;9.37;6.13;;;;;;;;;;5110623;28;20199;-81
2023/02/11 08:55:04;;;;;;;6.53;4.13;;;;;;;;;;5092055;28;20621;-80
2023/02/11 08:57:31;;;;;;;5.00;3.40;;;;;;;;;;5100683;28;20698;-80
2023/02/11 08:59:59;;;;;;;5.33;4.23;;;;;;;;;;5096382;28;20780;-81
2023/02/11 09:02:26;;;;;;;4.47;3.30;;;;;;;;;;5110171;28;20575;-81
2023/02/11 09:04:53;;;;;;;4.50;3.17;;;;;;;;;;5092496;28;20199;-81
2023/02/11 09:07:21;;;;;;;4.13;2.93;;;;;;;;;;5092444;28;20253;-80
2023/02/11 09:09:48;;;;;;;3.13;2.60;;;;;;;;;;5111117;28;20199;-81
2023/02/11 09:12:15;;;;;;;3.77;3.27;;;;;;;;;;5107139;28;20257;-81
2023/02/11 09:14:45;;;;;;;4.30;3.77;;;;;;;;;;5100678;28;20646;-80
2023/02/11 09:17:12;;;;;;;4.13;3.33;;;;;;;;;;5106816;28;20204;-80
2023/02/11 09:19:39;;;;;;;4.10;3.40;;;;;;;;;;5083447;28;20207;-80
2023/02/11 09:22:06;;;;;;;3.10;2.80;;;;;;;;;;5110394;28;20252;-80
2023/02/11 09:24:34;;;;;;;3.33;2.30;;;;;;;;;;5100248;28;20196;-80
2023/02/11 09:27:01;;;;;;;4.03;3.27;;;;;;;;;;5086126;28;20656;-80
2023/02/11 09:29:28;;;;;;;4.43;3.20;;;;;;;;;;5090683;28;20234;-80
2023/02/11 09:31:55;;;;;;;5.07;3.60;;;;;;;;;;5076773;28;20249;-80
2023/02/11 09:34:22;;;;;;;4.00;2.70;;;;;;;;;;5099674;28;20208;-80
2023/02/11 09:36:49;;;;;;;8.53;3.87;;;;;;;;;;5108756;28;20203;-80
2023/02/11 09:39:17;;;;;;;5.50;3.87;;;;;;;;;;5080678;28;20273;-80
2023/02/11 09:41:57;;;;;;;4.40;3.20;;;;;;;;;;5090233;28;20702;-80
2023/02/11 09:44:25;;;;;;;8.17;3.83;;;;;;;;;;5090779;28;20236;-80
2023/02/11 09:46:56;;;;;;;2.80;2.30;;;;;;;;;;5098208;28;20207;-80
2023/02/11 09:49:36;;;;;;;;;;;;;;;;;;;;;
2023/02/11 09:52:06;;;;;;;4.20;2.80;;;;;;;;;;5107974;28;21068;-80
2023/02/11 09:54:36;;;;;;;2.73;2.53;;;;;;;;;;5106886;28;20208;-81
2023/02/11 09:57:09;;;;;;;4.70;2.83;;;;;;;;;;5090572;28;20223;-80
2023/02/11 09:59:36;;;;;;;3.53;2.70;;;;;;;;;;5103901;28;20205;-80
2023/02/11 10:02:05;;;;;;;4.53;3.60;;;;;;;;;;5090047;28;20566;-81
2023/02/11 10:04:47;;;;;;;3.77;2.80;;;;;;;;;;5097310;28;20253;-80
2023/02/11 10:07:18;;;;;;;13.90;6.20;;;;;;;;;;5098434;28;20576;-80
2023/02/11 10:09:59;;;;;;;3.23;2.63;;;;;;;;;;5103104;28;20745;-80
2023/02/11 10:12:41;;;;;;;3.40;3.10;;;;;;;;;;5100066;28;20195;-80
2023/02/11 10:15:15;;;;;;;6.23;3.30;;;;;;;;;;5114406;28;20195;-80
2023/02/11 10:17:52;;;;;;;8.47;5.67;;;;;;;;;;5105934;28;20210;-79
2023/02/11 10:20:25;;;;;;;4.10;2.93;;;;;;;;;;5093934;28;20265;-79
2023/02/11 10:22:54;;;;;;;4.60;3.07;;;;;;;;;;5101934;28;20199;-76
2023/02/11 10:25:23;;;;;;;5.20;2.80;;;;;;;;;;5098871;28;20207;-77
2023/02/11 10:27:52;;;;;;;6.47;4.53;;;;;;;;;;5093037;28;20205;-77
2023/02/11 10:30:24;;;;;;;3.57;2.53;;;;;;;;;;5108912;28;20203;-78
2023/02/11 10:32:55;;;;;;;4.07;2.30;;;;;;;;;;5104321;28;20205;-80
2023/02/11 10:35:26;;;;;;;2.70;2.50;;;;;;;;;;5093131;28;20633;-80
2023/02/11 10:37:53;;;;;;;3.67;2.87;;;;;;;;;;5104472;28;20200;-80
2023/02/11 10:40:24;;;;;;;2.40;2.20;;;;;;;;;;5099616;28;20742;-80
2023/02/11 10:42:55;;;;;;;2.77;2.23;;;;;;;;;;5102040;28;20204;-80
2023/02/11 10:45:28;;;;;;;2.73;2.33;;;;;;;;;;5093171;28;20224;-81
2023/02/11 10:47:55;;;;;;;4.03;3.33;;;;;;;;;;5092941;28;20262;-80
2023/02/11 10:50:26;;;;;;;3.60;2.90;;;;;;;;;;5082805;28;20204;-80
2023/02/11 10:52:56;;;;;;;8.97;4.33;;;;;;;;;;5097992;28;20694;-80
2023/02/11 10:55:26;;;;;;;3.33;2.67;;;;;;;;;;5092517;28;20196;-80
2023/02/11 10:57:56;;;;;;;4.00;2.63;;;;;;;;;;5106632;28;20649;-80
2023/02/11 11:00:32;;;;;;;4.20;3.90;;;;;;;;;;5100839;28;20249;-79
2023/02/11 11:03:00;;;;;;;4.07;2.63;;;;;;;;;;5105963;28;20204;-80
2023/02/11 11:05:31;;;;;;;2.80;2.40;;;;;;;;;;5092552;28;20207;-80
2023/02/11 11:08:00;;;;;;;6.60;3.30;;;;;;;;;;5106270;28;20200;-80
2023/02/11 11:10:30;;;;;;;3.03;2.47;;;;;;;;;;5085682;28;20200;-80
2023/02/11 11:12:58;;;;;;;4.47;2.63;;;;;;;;;;5092954;28;20208;-80
2023/02/11 11:15:26;;;;;;;5.03;3.47;;;;;;;;;;5094773;28;20212;-80
2023/02/11 11:18:10;;;;;;;4.67;3.40;;;;;;;;;;5103514;28;20230;-81
2023/02/11 11:20:39;;;;;;;3.10;2.70;;;;;;;;;;5096480;28;20200;-80
2023/02/11 11:23:16;;;;;;;3.43;3.13;;;;;;;;;;5099951;28;20278;-80
2023/02/11 11:25:46;;;;;;;4.13;3.40;;;;;;;;;;5098283;28;20195;-81
2023/02/11 11:28:22;;;;;;;3.77;3.40;;;;;;;;;;5111062;28;20636;-82
2023/02/11 11:30:50;;;;;;;11.30;8.17;;;;;;;;;;5099841;28;20203;-80
2023/02/11 11:33:21;;;;;;;7.73;5.90;;;;;;;;;;5110119;28;20212;-80
2023/02/11 11:36:10;;;;;;;6.13;5.17;;;;;;;;;;5092076;28;20261;-81
2023/02/11 11:38:44;;;;;;;7.90;4.57;;;;;;;;;;5088951;28;20739;-80
2023/02/11 11:41:23;;;;;;;5.30;4.27;;;;;;;;;;5092850;28;20204;-80
2023/02/11 11:44:00;;;;;;;6.70;4.80;;;;;;;;;;5102340;28;20571;-81
2023/02/11 11:46:33;;;;;;;9.77;8.67;;;;;;;;;;5105389;28;20192;-81
2023/02/11 11:49:17;;;;;;;6.77;5.07;;;;;;;;;;5092051;28;20239;-79
2023/02/11 11:51:49;;;;;;;4.83;4.23;;;;;;;;;;5091579;28;20200;-80
2023/02/11 11:54:17;;;;;;;5.70;4.33;;;;;;;;;;5107742;28;20639;-80
2023/02/11 11:56:51;;;;;;;12.07;8.43;;;;;;;;;;5102299;28;20211;-81
2023/02/11 11:59:22;;;;;;;12.53;10.13;;;;;;;;;;5091873;28;20253;-80
2023/02/11 12:02:08;;;;;;;7.77;6.10;;;;;;;;;;5091529;28;20200;-80
2023/02/11 12:04:55;;;;;;;8.83;6.10;;;;;;;;;;5098770;28;20286;-79
2023/02/11 12:07:30;;;;;;;10.93;7.03;;;;;;;;;;5108461;28;20189;-80
2023/02/11 12:10:20;;;;;;;103.00;51.20;;;;;;;;;;5091904;28;20223;-80
2023/02/11 12:12:53;;;;;;;25.77;19.33;;;;;;;;;;5112065;28;20203;-80
2023/02/11 12:15:31;;;;;;;11.63;8.47;;;;;;;;;;5109423;28;20701;-81
2023/02/11 12:18:09;;;;;;;17.10;12.27;;;;;;;;;;5092031;28;20208;-81
2023/02/11 12:20:47;;;;;;;20.13;13.43;;;;;;;;;;5096295;28;20196;-80
2023/02/11 12:23:32;;;;;;;9.70;8.10;;;;;;;;;;5098383;28;20261;-80
2023/02/11 12:26:04;;;;;;;15.33;11.30;;;;;;;;;;5091010;28;20207;-80
2023/02/11 12:28:38;;;;;;;62.80;35.20;;;;;;;;;;5104166;28;20706;-80
2023/02/11 12:31:18;;;;;;;21.10;13.17;;;;;;;;;;5091472;28;20212;-80
2023/02/11 12:34:11;;;;;;;13.90;10.43;;;;;;;;;;5105348;28;20292;-80
2023/02/11 12:36:53;;;;;;;28.40;20.83;;;;;;;;;;5084285;28;20203;-80
2023/02/11 12:39:29;;;;;;;8.97;7.67;;;;;;;;;;5099254;28;20200;-80
2023/02/11 12:45:07;;;;;;;21.90;15.37;;;;;;;;;;5104817;28;20326;-81
2023/02/11 12:47:47;;;;;;;10.63;7.30;;;;;;;;;;5104421;28;20201;-80
2023/02/11 12:50:21;;;;;;;23.43;16.27;;;;;;;;;;5099960;28;20226;-81
2023/02/11 12:53:07;;;;;;;23.70;14.10;;;;;;;;;;5111043;28;20195;-81
2023/02/11 12:55:40;;;;;;;23.13;13.60;;;;;;;;;;5098576;28;20651;-81
2023/02/11 12:58:16;;;;;;;11.87;8.00;;;;;;;;;;5091649;28;20192;-81
2023/02/11 13:00:47;;;;;;;16.20;10.33;;;;;;;;;;5104555;28;20203;-81
2023/02/11 13:03:19;;;;;;;11.80;8.70;;;;;;;;;;5091339;28;20200;-81
2023/02/11 13:05:51;;;;;;;9.37;6.20;;;;;;;;;;5107463;28;20762;-81
2023/02/11 13:08:23;;;;;;;16.80;10.57;;;;;;;;;;5100384;28;20214;-81
2023/02/11 13:10:54;;;;;;;11.47;9.63;;;;;;;;;;5104561;28;20412;-81
2023/02/11 13:13:25;;;;;;;10.90;7.93;;;;;;;;;;5103211;28;20214;-80
2023/02/11 13:15:54;;;;;;;12.07;7.80;;;;;;;;;;5091439;28;20200;-81
2023/02/11 13:18:44;;;;;;;14.87;11.40;;;;;;;;;;5104040;28;20746;-81
2023/02/11 13:21:22;;;;;;;85.67;41.37;;;;;;;;;;5103875;28;20754;-81
2023/02/11 13:23:57;;;;;;;37.10;26.23;;;;;;;;;;5105896;28;20207;-81
2023/02/11 13:26:29;;;;;;;14.27;10.10;;;;;;;;;;5111286;28;20203;-82
2023/02/11 13:29:01;;;;;;;13.37;11.73;;;;;;;;;;5098249;28;20774;-81
2023/02/11 13:31:28;;;;;;;10.67;8.70;;;;;;;;;;5108690;28;20682;-81
2023/02/11 13:33:56;;;;;;;13.43;8.23;;;;;;;;;;5099484;28;20286;-81
2023/02/11 13:36:25;;;;;;;16.40;9.53;;;;;;;;;;5110599;28;20564;-81
2023/02/11 13:38:53;;;;;;;17.20;10.23;;;;;;;;;;5112359;28;20204;-81
2023/02/11 13:41:24;;;;;;;13.53;10.53;;;;;;;;;;5099648;28;20615;-81
2023/02/11 13:43:59;;;;;;;13.47;10.17;;;;;;;;;;5110480;28;20239;-79
2023/02/11 13:46:28;;;;;;;9.73;7.43;;;;;;;;;;5109860;28;20670;-77
2023/02/11 13:48:57;;;;;;;14.27;8.57;;;;;;;;;;5098160;28;20678;-76
2023/02/11 13:51:36;;;;;;;10.03;7.80;;;;;;;;;;5094030;28;20208;-80
2023/02/11 13:54:04;;;;;;;14.53;8.80;;;;;;;;;;5093592;28;20253;-76
2023/02/11 13:56:33;;;;;;;10.57;7.30;;;;;;;;;;5096386;28;20219;-76
2023/02/11 13:59:01;;;;;;;9.07;7.33;;;;;;;;;;5108170;28;20253;-79
2023/02/11 14:11:00;;;;;;;15.40;11.00;;;;;;;;;;5098266;28;20257;-79
2023/02/11 14:13:27;;;;;;;17.53;11.50;;;;;;;;;;5093929;28;21441;-79
2023/02/11 14:16:06;;;;;;;11.27;8.67;;;;;;;;;;5106984;28;20200;-80
2023/02/11 14:18:38;;;;;;;8.23;6.40;;;;;;;;;;5093259;28;20207;-79
2023/02/11 14:21:12;;;;;;;11.67;8.87;;;;;;;;;;5093681;28;20200;-79
2023/02/11 14:23:39;;;;;;;10.97;7.47;;;;;;;;;;5110465;28;20225;-79
2023/02/11 14:26:28;;;;;;;11.73;8.30;;;;;;;;;;5113620;28;20214;-79
2023/02/11 14:29:01;;;;;;;19.57;12.43;;;;;;;;;;5106690;28;20207;-80
2023/02/11 14:31:31;;;;;;;10.73;9.00;;;;;;;;;;5107797;28;20306;-79
2023/02/11 14:34:30;;;;;;;16.87;10.63;;;;;;;;;;5113908;28;20200;-79
2023/02/11 14:37:12;;;;;;;18.57;11.93;;;;;;;;;;5092982;28;20626;-79
2023/02/11 14:39:54;;;;;;;15.07;9.80;;;;;;;;;;5095420;28;20265;-79
2023/02/11 14:42:29;;;;;;;18.57;12.40;;;;;;;;;;5114117;28;20208;-79
2023/02/11 14:44:58;;;;;;;18.23;11.83;;;;;;;;;;5107813;28;20589;-80
2023/02/11 14:47:29;;;;;;;21.60;13.30;;;;;;;;;;5092979;28;20200;-79
2023/02/11 14:49:59;;;;;;;20.77;13.30;;;;;;;;;;5099918;28;20234;-80
2023/02/11 14:52:29;;;;;;;20.47;11.50;;;;;;;;;;5099580;28;20204;-82
2023/02/11 14:55:15;;;;;;;22.23;13.87;;;;;;;;;;5104526;28;20208;-80
2023/02/11 14:57:44;;;;;;;22.40;14.73;;;;;;;;;;5097634;28;20670;-79
2023/02/11 15:00:17;;;;;;;24.77;14.77;;;;;;;;;;5102020;28;20304;-79
2023/02/11 15:02:45;;;;;;;15.17;9.53;;;;;;;;;;5106461;28;20635;-79
2023/02/11 15:05:21;;;;;;;13.53;10.13;;;;;;;;;;5105629;28;20578;-79
2023/02/11 15:07:50;;;;;;;30.60;15.80;;;;;;;;;;5105189;28;20283;-79
2023/02/11 15:10:28;;;;;;;23.93;13.67;;;;;;;;;;5106533;28;20225;-79